logo dgac
Lunes 27 de Septiembre del 2021
Buscar por aerodromo o helipuerto
Ingrese nombre de aeródromo, localidad o designador OACI:
TAF: TAF SCCF 262210Z 2700/2724 26010KT CAVOK TN08/2709Z TX29/2718Z BECMG 2703/2705 11018KT BECMG 2714/2716 10008KT BECMG 2717/2718 27018KT TEMPO 2718/2721 27021G32KT BECMG 2723/2724 26010KT
TAF del 26/09/2021 a las 22:10 UTC
Para mayor información visite www.meteochile.cl
Período de validez: desde el 27 a las 00:00 UTC hasta el 27 a las 24:00 UTC
Viento: dirección 260 grados, velocidad 10 nudos
Visibilidad: 10 km o más,
    sin nubes bajo los 5.000 pies o bajo del MSA (Mínimo de Seguridad del Aeródromo),
    sin cumulonimbus, y sin fenómenos de tiempo significativo en el aeródromo o alrededores
Temperatura mínima: 8ºC el 27 a las 09:00 UTC
Temperatura máxima: 29ºC el 27 a las 18:00 UTC
Se espera un cambio entre las 03:00 UTC del 27 y las 05:00 UTC del 27, :
Viento: dirección 110 grados, velocidad 18 nudos
Se espera un cambio entre las 14:00 UTC del 27 y las 16:00 UTC del 27, :
Viento: dirección 100 grados, velocidad 8 nudos
Se espera un cambio entre las 17:00 UTC del 27 y las 18:00 UTC del 27, :
Viento: dirección 270 grados, velocidad 18 nudos
Se espera en forma temporal entre las 18:00 UTC del 27 y las 21:00 UTC del 27:
Viento: dirección 270 grados, velocidad 21 nudos, con ráfagas de velocidad máxima de 32Nudos
Se espera un cambio entre las 23:00 UTC del 27 y las 24:00 UTC del 27, :
Viento: dirección 260 grados, velocidad 10 nudos